EmailTwitter


Observations de surface / France / LFMK (07635)

Régions: Québec | Canada | États-Unis | Europe | France | UK | Ailleurs
Station
Affichage
Infos & localisation pour LFMK (07635) | Aide pour décoder les METARs

Observations prises le 2018-01-24 à 09H30 UTC à CARCASSONNE/SALV, FR (LFMK)

Température: 10.0 Celsius

Point de rosée: 8.0 Celsius

Humidité relative: 87%

Facteur vent: 7.

Vents: Est à 22 km/h ou 12 noeuds.

Pression au niveau moyen de la mer: 102.60 kilopascals.

Observation METAR:

LFMK 240930Z AUTO 10012KT 070V130 CAVOK 10/08 Q1026 NOSIG=